sensor_id;sensor_type;location;lat;lon;timestamp;P1;durP1;ratioP1;P2;durP2;ratioP2
16954;SDS011;8594;52.052;8.354;2024-02-15T00:00:19;38.20;;;21.13;;
16954;SDS011;8594;52.052;8.354;2024-02-15T00:02:47;34.17;;;20.67;;
16954;SDS011;8594;52.052;8.354;2024-02-15T00:05:15;31.57;;;20.07;;
16954;SDS011;8594;52.052;8.354;2024-02-15T00:07:42;35.10;;;21.37;;
16954;SDS011;8594;52.052;8.354;2024-02-15T00:10:11;33.23;;;19.80;;
16954;SDS011;8594;52.052;8.354;2024-02-15T00:12:39;33.00;;;20.30;;
16954;SDS011;8594;52.052;8.354;2024-02-15T00:15:06;33.50;;;20.47;;
16954;SDS011;8594;52.052;8.354;2024-02-15T00:17:34;34.57;;;21.10;;
16954;SDS011;8594;52.052;8.354;2024-02-15T00:20:00;30.57;;;19.80;;
16954;SDS011;8594;52.052;8.354;2024-02-15T00:22:31;32.87;;;19.53;;
16954;SDS011;8594;52.052;8.354;2024-02-15T00:24:58;29.17;;;19.30;;
16954;SDS011;8594;52.052;8.354;2024-02-15T00:27:24;36.93;;;20.03;;
16954;SDS011;8594;52.052;8.354;2024-02-15T00:29:51;34.93;;;20.87;;
16954;SDS011;8594;52.052;8.354;2024-02-15T00:32:18;29.87;;;20.20;;
16954;SDS011;8594;52.052;8.354;2024-02-15T00:34:44;34.60;;;20.73;;
16954;SDS011;8594;52.052;8.354;2024-02-15T00:37:12;34.70;;;20.13;;
16954;SDS011;8594;52.052;8.354;2024-02-15T00:39:40;32.93;;;20.37;;
16954;SDS011;8594;52.052;8.354;2024-02-15T00:42:07;33.60;;;20.93;;
16954;SDS011;8594;52.052;8.354;2024-02-15T00:44:34;32.37;;;20.37;;
16954;SDS011;8594;52.052;8.354;2024-02-15T00:47:00;35.73;;;21.17;;
16954;SDS011;8594;52.052;8.354;2024-02-15T00:49:27;36.23;;;21.03;;
16954;SDS011;8594;52.052;8.354;2024-02-15T00:51:54;37.67;;;21.70;;
16954;SDS011;8594;52.052;8.354;2024-02-15T00:54:21;35.27;;;20.83;;
16954;SDS011;8594;52.052;8.354;2024-02-15T00:56:49;36.43;;;22.07;;
16954;SDS011;8594;52.052;8.354;2024-02-15T00:59:16;33.77;;;22.17;;
16954;SDS011;8594;52.052;8.354;2024-02-15T01:01:43;33.73;;;20.87;;
16954;SDS011;8594;52.052;8.354;2024-02-15T01:04:11;38.03;;;21.33;;
16954;SDS011;8594;52.052;8.354;2024-02-15T01:06:38;35.53;;;22.17;;
16954;SDS011;8594;52.052;8.354;2024-02-15T01:09:06;35.10;;;21.97;;
16954;SDS011;8594;52.052;8.354;2024-02-15T01:11:33;41.80;;;24.43;;
16954;SDS011;8594;52.052;8.354;2024-02-15T01:14:03;39.33;;;23.70;;
16954;SDS011;8594;52.052;8.354;2024-02-15T01:16:29;46.67;;;24.23;;
16954;SDS011;8594;52.052;8.354;2024-02-15T01:18:56;40.60;;;23.87;;
16954;SDS011;8594;52.052;8.354;2024-02-15T01:21:23;44.77;;;24.10;;
16954;SDS011;8594;52.052;8.354;2024-02-15T01:23:50;40.27;;;23.67;;
16954;SDS011;8594;52.052;8.354;2024-02-15T01:26:18;41.67;;;23.83;;
16954;SDS011;8594;52.052;8.354;2024-02-15T01:28:45;39.20;;;23.67;;
16954;SDS011;8594;52.052;8.354;2024-02-15T01:31:14;43.23;;;25.43;;
16954;SDS011;8594;52.052;8.354;2024-02-15T01:33:42;40.13;;;24.77;;
16954;SDS011;8594;52.052;8.354;2024-02-15T01:36:13;43.93;;;25.00;;
16954;SDS011;8594;52.052;8.354;2024-02-15T01:38:41;42.43;;;24.40;;
16954;SDS011;8594;52.052;8.354;2024-02-15T01:41:08;38.17;;;22.83;;
16954;SDS011;8594;52.052;8.354;2024-02-15T01:43:35;40.23;;;22.80;;
16954;SDS011;8594;52.052;8.354;2024-02-15T01:46:02;38.57;;;22.83;;
16954;SDS011;8594;52.052;8.354;2024-02-15T01:48:37;40.37;;;22.60;;
16954;SDS011;8594;52.052;8.354;2024-02-15T01:51:06;38.47;;;23.33;;
16954;SDS011;8594;52.052;8.354;2024-02-15T01:53:35;37.70;;;22.27;;
16954;SDS011;8594;52.052;8.354;2024-02-15T01:56:03;37.80;;;22.80;;
16954;SDS011;8594;52.052;8.354;2024-02-15T01:58:30;34.07;;;20.97;;
16954;SDS011;8594;52.052;8.354;2024-02-15T02:00:59;34.90;;;21.63;;
16954;SDS011;8594;52.052;8.354;2024-02-15T02:03:27;34.80;;;22.10;;
16954;SDS011;8594;52.052;8.354;2024-02-15T02:05:55;37.37;;;22.50;;
16954;SDS011;8594;52.052;8.354;2024-02-15T02:08:22;34.17;;;21.20;;
16954;SDS011;8594;52.052;8.354;2024-02-15T02:10:49;36.37;;;22.97;;
16954;SDS011;8594;52.052;8.354;2024-02-15T02:13:16;38.67;;;23.07;;
16954;SDS011;8594;52.052;8.354;2024-02-15T02:15:43;40.60;;;23.37;;
16954;SDS011;8594;52.052;8.354;2024-02-15T02:18:10;43.87;;;23.57;;
16954;SDS011;8594;52.052;8.354;2024-02-15T02:20:37;37.70;;;23.87;;
16954;SDS011;8594;52.052;8.354;2024-02-15T02:23:07;37.63;;;23.23;;
16954;SDS011;8594;52.052;8.354;2024-02-15T02:25:40;40.90;;;23.33;;
16954;SDS011;8594;52.052;8.354;2024-02-15T02:28:11;41.43;;;24.17;;
16954;SDS011;8594;52.052;8.354;2024-02-15T02:30:39;37.67;;;22.83;;
16954;SDS011;8594;52.052;8.354;2024-02-15T02:33:09;39.93;;;24.30;;
16954;SDS011;8594;52.052;8.354;2024-02-15T02:35:42;40.87;;;23.77;;
16954;SDS011;8594;52.052;8.354;2024-02-15T02:38:09;39.77;;;22.97;;
16954;SDS011;8594;52.052;8.354;2024-02-15T02:40:36;41.83;;;23.57;;
16954;SDS011;8594;52.052;8.354;2024-02-15T02:43:04;38.33;;;23.67;;
16954;SDS011;8594;52.052;8.354;2024-02-15T02:45:31;41.80;;;24.67;;
16954;SDS011;8594;52.052;8.354;2024-02-15T02:47:58;39.83;;;24.20;;
16954;SDS011;8594;52.052;8.354;2024-02-15T02:50:25;39.33;;;24.20;;
16954;SDS011;8594;52.052;8.354;2024-02-15T02:52:52;40.63;;;24.13;;
16954;SDS011;8594;52.052;8.354;2024-02-15T02:55:19;42.60;;;24.77;;
16954;SDS011;8594;52.052;8.354;2024-02-15T02:57:45;42.93;;;25.00;;
16954;SDS011;8594;52.052;8.354;2024-02-15T03:00:14;38.87;;;23.70;;
16954;SDS011;8594;52.052;8.354;2024-02-15T03:02:42;43.30;;;24.93;;
16954;SDS011;8594;52.052;8.354;2024-02-15T03:05:10;47.73;;;25.20;;
16954;SDS011;8594;52.052;8.354;2024-02-15T03:07:37;40.23;;;24.50;;
16954;SDS011;8594;52.052;8.354;2024-02-15T03:10:06;44.50;;;25.70;;
16954;SDS011;8594;52.052;8.354;2024-02-15T03:12:34;47.60;;;26.37;;
16954;SDS011;8594;52.052;8.354;2024-02-15T03:15:02;47.83;;;27.37;;
16954;SDS011;8594;52.052;8.354;2024-02-15T03:17:30;44.33;;;26.03;;
16954;SDS011;8594;52.052;8.354;2024-02-15T03:19:57;46.60;;;26.37;;
16954;SDS011;8594;52.052;8.354;2024-02-15T03:22:24;44.67;;;26.47;;
16954;SDS011;8594;52.052;8.354;2024-02-15T03:24:52;46.93;;;26.33;;
16954;SDS011;8594;52.052;8.354;2024-02-15T03:27:19;50.97;;;26.67;;
16954;SDS011;8594;52.052;8.354;2024-02-15T03:29:48;50.80;;;26.03;;
16954;SDS011;8594;52.052;8.354;2024-02-15T03:32:16;50.07;;;26.97;;
16954;SDS011;8594;52.052;8.354;2024-02-15T03:34:44;47.77;;;27.53;;
16954;SDS011;8594;52.052;8.354;2024-02-15T03:37:11;48.57;;;26.63;;
16954;SDS011;8594;52.052;8.354;2024-02-15T03:39:38;48.20;;;27.43;;
16954;SDS011;8594;52.052;8.354;2024-02-15T03:42:04;54.20;;;28.77;;
16954;SDS011;8594;52.052;8.354;2024-02-15T03:44:31;54.27;;;28.07;;
16954;SDS011;8594;52.052;8.354;2024-02-15T03:46:58;48.30;;;27.93;;
16954;SDS011;8594;52.052;8.354;2024-02-15T03:49:25;54.37;;;28.67;;
16954;SDS011;8594;52.052;8.354;2024-02-15T03:51:53;53.07;;;29.07;;
16954;SDS011;8594;52.052;8.354;2024-02-15T03:54:20;56.43;;;30.70;;
16954;SDS011;8594;52.052;8.354;2024-02-15T03:56:48;52.73;;;29.60;;
16954;SDS011;8594;52.052;8.354;2024-02-15T03:59:17;62.47;;;30.40;;
16954;SDS011;8594;52.052;8.354;2024-02-15T04:01:50;55.13;;;29.33;;
16954;SDS011;8594;52.052;8.354;2024-02-15T04:04:16;51.93;;;29.17;;
16954;SDS011;8594;52.052;8.354;2024-02-15T04:06:45;54.43;;;30.13;;
16954;SDS011;8594;52.052;8.354;2024-02-15T04:09:14;49.47;;;29.20;;
16954;SDS011;8594;52.052;8.354;2024-02-15T04:11:42;61.27;;;30.77;;
16954;SDS011;8594;52.052;8.354;2024-02-15T04:14:09;57.47;;;29.60;;
16954;SDS011;8594;52.052;8.354;2024-02-15T04:16:36;57.23;;;29.87;;
16954;SDS011;8594;52.052;8.354;2024-02-15T04:19:03;51.97;;;28.93;;
16954;SDS011;8594;52.052;8.354;2024-02-15T04:21:29;58.90;;;29.73;;
16954;SDS011;8594;52.052;8.354;2024-02-15T04:23:56;57.37;;;28.87;;
16954;SDS011;8594;52.052;8.354;2024-02-15T04:26:25;50.40;;;28.40;;
16954;SDS011;8594;52.052;8.354;2024-02-15T04:28:55;57.23;;;28.53;;
16954;SDS011;8594;52.052;8.354;2024-02-15T04:31:21;54.03;;;28.87;;
16954;SDS011;8594;52.052;8.354;2024-02-15T04:33:51;53.33;;;27.20;;
16954;SDS011;8594;52.052;8.354;2024-02-15T04:36:18;51.97;;;26.83;;
16954;SDS011;8594;52.052;8.354;2024-02-15T04:38:48;53.03;;;26.87;;
16954;SDS011;8594;52.052;8.354;2024-02-15T04:41:16;50.63;;;26.13;;
16954;SDS011;8594;52.052;8.354;2024-02-15T04:43:47;53.00;;;26.27;;
16954;SDS011;8594;52.052;8.354;2024-02-15T04:46:14;49.63;;;26.50;;
16954;SDS011;8594;52.052;8.354;2024-02-15T04:48:41;47.70;;;25.53;;
16954;SDS011;8594;52.052;8.354;2024-02-15T04:51:08;55.00;;;26.43;;
16954;SDS011;8594;52.052;8.354;2024-02-15T04:53:36;50.73;;;25.00;;
16954;SDS011;8594;52.052;8.354;2024-02-15T04:56:04;48.77;;;25.37;;
16954;SDS011;8594;52.052;8.354;2024-02-15T04:58:36;43.83;;;23.70;;
16954;SDS011;8594;52.052;8.354;2024-02-15T05:01:11;43.93;;;23.37;;
16954;SDS011;8594;52.052;8.354;2024-02-15T05:03:39;50.70;;;24.07;;
16954;SDS011;8594;52.052;8.354;2024-02-15T05:06:06;45.73;;;22.93;;
16954;SDS011;8594;52.052;8.354;2024-02-15T05:08:34;43.57;;;22.30;;
16954;SDS011;8594;52.052;8.354;2024-02-15T05:11:07;49.60;;;23.43;;
16954;SDS011;8594;52.052;8.354;2024-02-15T05:13:39;44.73;;;23.53;;
16954;SDS011;8594;52.052;8.354;2024-02-15T05:16:06;48.93;;;23.40;;
16954;SDS011;8594;52.052;8.354;2024-02-15T05:18:34;45.87;;;22.10;;
16954;SDS011;8594;52.052;8.354;2024-02-15T05:21:01;53.07;;;24.47;;
16954;SDS011;8594;52.052;8.354;2024-02-15T05:23:28;49.07;;;24.60;;
16954;SDS011;8594;52.052;8.354;2024-02-15T05:25:55;55.67;;;24.50;;
16954;SDS011;8594;52.052;8.354;2024-02-15T05:28:23;54.87;;;25.17;;
16954;SDS011;8594;52.052;8.354;2024-02-15T05:31:07;52.10;;;24.70;;
16954;SDS011;8594;52.052;8.354;2024-02-15T05:33:38;56.23;;;23.73;;
16954;SDS011;8594;52.052;8.354;2024-02-15T05:36:07;59.93;;;24.50;;
16954;SDS011;8594;52.052;8.354;2024-02-15T05:38:35;53.03;;;25.77;;
16954;SDS011;8594;52.052;8.354;2024-02-15T05:41:02;51.40;;;22.40;;
16954;SDS011;8594;52.052;8.354;2024-02-15T05:43:29;47.60;;;22.97;;
16954;SDS011;8594;52.052;8.354;2024-02-15T05:45:57;52.23;;;23.97;;
16954;SDS011;8594;52.052;8.354;2024-02-15T05:48:24;44.30;;;21.37;;
16954;SDS011;8594;52.052;8.354;2024-02-15T05:50:52;47.77;;;22.53;;
16954;SDS011;8594;52.052;8.354;2024-02-15T05:53:19;44.70;;;21.23;;
16954;SDS011;8594;52.052;8.354;2024-02-15T05:55:46;45.43;;;22.00;;
16954;SDS011;8594;52.052;8.354;2024-02-15T05:58:14;40.83;;;20.23;;
16954;SDS011;8594;52.052;8.354;2024-02-15T06:00:42;48.63;;;20.87;;
16954;SDS011;8594;52.052;8.354;2024-02-15T06:03:09;46.83;;;21.27;;
16954;SDS011;8594;52.052;8.354;2024-02-15T06:05:37;45.60;;;20.80;;
16954;SDS011;8594;52.052;8.354;2024-02-15T06:08:05;48.70;;;22.17;;
16954;SDS011;8594;52.052;8.354;2024-02-15T06:10:33;35.03;;;19.23;;
16954;SDS011;8594;52.052;8.354;2024-02-15T06:12:59;43.33;;;19.83;;
16954;SDS011;8594;52.052;8.354;2024-02-15T06:15:26;49.63;;;20.67;;
16954;SDS011;8594;52.052;8.354;2024-02-15T06:17:53;38.87;;;18.33;;
16954;SDS011;8594;52.052;8.354;2024-02-15T06:20:20;38.83;;;18.90;;
16954;SDS011;8594;52.052;8.354;2024-02-15T06:22:47;32.07;;;18.17;;
16954;SDS011;8594;52.052;8.354;2024-02-15T06:25:18;44.23;;;19.90;;
16954;SDS011;8594;52.052;8.354;2024-02-15T06:27:45;37.73;;;18.30;;
16954;SDS011;8594;52.052;8.354;2024-02-15T06:30:14;35.03;;;17.83;;
16954;SDS011;8594;52.052;8.354;2024-02-15T06:32:59;38.27;;;17.13;;
16954;SDS011;8594;52.052;8.354;2024-02-15T06:35:44;41.60;;;22.23;;
16954;SDS011;8594;52.052;8.354;2024-02-15T06:38:28;33.13;;;16.77;;
16954;SDS011;8594;52.052;8.354;2024-02-15T06:41:14;33.70;;;15.70;;
16954;SDS011;8594;52.052;8.354;2024-02-15T06:43:40;28.37;;;14.83;;
16954;SDS011;8594;52.052;8.354;2024-02-15T06:46:08;34.23;;;16.57;;
16954;SDS011;8594;52.052;8.354;2024-02-15T06:48:36;29.20;;;16.00;;
16954;SDS011;8594;52.052;8.354;2024-02-15T06:51:03;34.10;;;16.03;;
16954;SDS011;8594;52.052;8.354;2024-02-15T06:53:30;29.70;;;15.13;;
16954;SDS011;8594;52.052;8.354;2024-02-15T06:55:57;26.10;;;13.70;;
16954;SDS011;8594;52.052;8.354;2024-02-15T06:58:25;27.20;;;14.17;;
16954;SDS011;8594;52.052;8.354;2024-02-15T07:00:52;26.87;;;14.03;;
16954;SDS011;8594;52.052;8.354;2024-02-15T07:03:19;27.40;;;13.20;;
16954;SDS011;8594;52.052;8.354;2024-02-15T07:05:47;29.53;;;13.33;;
16954;SDS011;8594;52.052;8.354;2024-02-15T07:08:14;24.20;;;13.23;;
16954;SDS011;8594;52.052;8.354;2024-02-15T07:10:41;21.87;;;13.03;;
16954;SDS011;8594;52.052;8.354;2024-02-15T07:13:08;21.93;;;12.53;;
16954;SDS011;8594;52.052;8.354;2024-02-15T07:15:36;24.27;;;11.53;;
16954;SDS011;8594;52.052;8.354;2024-02-15T07:18:04;25.10;;;12.47;;
16954;SDS011;8594;52.052;8.354;2024-02-15T07:20:32;22.17;;;12.10;;
16954;SDS011;8594;52.052;8.354;2024-02-15T07:22:59;22.27;;;11.67;;
16954;SDS011;8594;52.052;8.354;2024-02-15T07:25:26;26.20;;;12.20;;
16954;SDS011;8594;52.052;8.354;2024-02-15T07:27:52;22.13;;;11.50;;
16954;SDS011;8594;52.052;8.354;2024-02-15T07:30:19;19.53;;;10.43;;
16954;SDS011;8594;52.052;8.354;2024-02-15T07:32:48;18.77;;;10.63;;
16954;SDS011;8594;52.052;8.354;2024-02-15T07:35:15;22.93;;;13.93;;
16954;SDS011;8594;52.052;8.354;2024-02-15T07:37:50;24.20;;;11.63;;
16954;SDS011;8594;52.052;8.354;2024-02-15T07:40:20;22.73;;;11.97;;
16954;SDS011;8594;52.052;8.354;2024-02-15T07:42:47;17.90;;;10.17;;
16954;SDS011;8594;52.052;8.354;2024-02-15T07:45:14;15.30;;;10.20;;
16954;SDS011;8594;52.052;8.354;2024-02-15T07:47:43;17.97;;;9.97;;
16954;SDS011;8594;52.052;8.354;2024-02-15T07:50:11;18.63;;;9.67;;
16954;SDS011;8594;52.052;8.354;2024-02-15T07:52:45;20.43;;;9.63;;
16954;SDS011;8594;52.052;8.354;2024-02-15T07:55:13;23.33;;;11.60;;
16954;SDS011;8594;52.052;8.354;2024-02-15T07:57:39;23.37;;;10.30;;
16954;SDS011;8594;52.052;8.354;2024-02-15T08:00:07;17.47;;;9.57;;
16954;SDS011;8594;52.052;8.354;2024-02-15T08:02:35;18.17;;;9.07;;
16954;SDS011;8594;52.052;8.354;2024-02-15T08:05:05;21.53;;;9.33;;
16954;SDS011;8594;52.052;8.354;2024-02-15T08:07:36;19.13;;;8.90;;
16954;SDS011;8594;52.052;8.354;2024-02-15T08:10:04;17.60;;;9.33;;
16954;SDS011;8594;52.052;8.354;2024-02-15T08:12:37;18.43;;;8.77;;
16954;SDS011;8594;52.052;8.354;2024-02-15T08:15:06;16.43;;;8.37;;
16954;SDS011;8594;52.052;8.354;2024-02-15T08:17:36;19.00;;;9.13;;
16954;SDS011;8594;52.052;8.354;2024-02-15T08:20:06;19.20;;;9.30;;
16954;SDS011;8594;52.052;8.354;2024-02-15T08:22:34;14.23;;;8.03;;
16954;SDS011;8594;52.052;8.354;2024-02-15T08:25:04;17.77;;;8.20;;
16954;SDS011;8594;52.052;8.354;2024-02-15T08:27:35;14.67;;;8.33;;
16954;SDS011;8594;52.052;8.354;2024-02-15T08:30:07;12.53;;;7.30;;
16954;SDS011;8594;52.052;8.354;2024-02-15T08:32:35;20.43;;;7.77;;
16954;SDS011;8594;52.052;8.354;2024-02-15T08:35:03;14.37;;;7.80;;
16954;SDS011;8594;52.052;8.354;2024-02-15T08:37:31;15.37;;;8.17;;
16954;SDS011;8594;52.052;8.354;2024-02-15T08:40:00;18.40;;;7.30;;
16954;SDS011;8594;52.052;8.354;2024-02-15T08:42:27;16.77;;;6.90;;
16954;SDS011;8594;52.052;8.354;2024-02-15T08:44:54;16.00;;;7.33;;
16954;SDS011;8594;52.052;8.354;2024-02-15T08:47:21;17.40;;;6.53;;
16954;SDS011;8594;52.052;8.354;2024-02-15T08:49:47;13.97;;;6.30;;
16954;SDS011;8594;52.052;8.354;2024-02-15T08:52:14;10.37;;;6.03;;
16954;SDS011;8594;52.052;8.354;2024-02-15T08:54:43;11.53;;;5.93;;
16954;SDS011;8594;52.052;8.354;2024-02-15T08:57:11;12.57;;;5.93;;
16954;SDS011;8594;52.052;8.354;2024-02-15T08:59:38;11.80;;;5.90;;
16954;SDS011;8594;52.052;8.354;2024-02-15T09:02:05;11.93;;;6.00;;
16954;SDS011;8594;52.052;8.354;2024-02-15T09:04:32;14.83;;;5.73;;
16954;SDS011;8594;52.052;8.354;2024-02-15T09:06:58;10.83;;;5.40;;
16954;SDS011;8594;52.052;8.354;2024-02-15T09:09:29;13.00;;;5.27;;
16954;SDS011;8594;52.052;8.354;2024-02-15T09:11:56;8.47;;;5.50;;
16954;SDS011;8594;52.052;8.354;2024-02-15T09:14:25;11.23;;;6.60;;
16954;SDS011;8594;52.052;8.354;2024-02-15T09:16:51;11.63;;;5.50;;
16954;SDS011;8594;52.052;8.354;2024-02-15T09:19:18;11.97;;;5.47;;
16954;SDS011;8594;52.052;8.354;2024-02-15T09:21:45;8.17;;;5.60;;
16954;SDS011;8594;52.052;8.354;2024-02-15T09:24:11;11.57;;;5.00;;
16954;SDS011;8594;52.052;8.354;2024-02-15T09:26:41;11.63;;;5.00;;
16954;SDS011;8594;52.052;8.354;2024-02-15T09:29:07;9.67;;;4.60;;
16954;SDS011;8594;52.052;8.354;2024-02-15T09:31:36;10.53;;;4.40;;
16954;SDS011;8594;52.052;8.354;2024-02-15T09:34:05;7.90;;;4.40;;
16954;SDS011;8594;52.052;8.354;2024-02-15T09:36:33;12.17;;;5.40;;
16954;SDS011;8594;52.052;8.354;2024-02-15T09:39:02;8.97;;;4.57;;
16954;SDS011;8594;52.052;8.354;2024-02-15T09:41:29;14.60;;;5.27;;
16954;SDS011;8594;52.052;8.354;2024-02-15T09:43:57;10.03;;;4.60;;
16954;SDS011;8594;52.052;8.354;2024-02-15T09:46:26;10.47;;;4.60;;
16954;SDS011;8594;52.052;8.354;2024-02-15T09:48:55;8.47;;;4.57;;
16954;SDS011;8594;52.052;8.354;2024-02-15T09:51:24;14.90;;;5.50;;
16954;SDS011;8594;52.052;8.354;2024-02-15T09:53:52;11.40;;;5.23;;
16954;SDS011;8594;52.052;8.354;2024-02-15T09:56:19;9.03;;;5.27;;
16954;SDS011;8594;52.052;8.354;2024-02-15T09:58:49;10.27;;;4.87;;
16954;SDS011;8594;52.052;8.354;2024-02-15T10:01:16;10.07;;;4.70;;
16954;SDS011;8594;52.052;8.354;2024-02-15T10:03:49;12.30;;;4.70;;
16954;SDS011;8594;52.052;8.354;2024-02-15T10:06:18;9.07;;;4.60;;
16954;SDS011;8594;52.052;8.354;2024-02-15T10:08:47;11.63;;;4.13;;
16954;SDS011;8594;52.052;8.354;2024-02-15T10:11:14;9.43;;;4.13;;
16954;SDS011;8594;52.052;8.354;2024-02-15T10:13:41;8.00;;;4.70;;
16954;SDS011;8594;52.052;8.354;2024-02-15T10:16:15;7.77;;;4.70;;
16954;SDS011;8594;52.052;8.354;2024-02-15T10:18:43;10.70;;;5.30;;
16954;SDS011;8594;52.052;8.354;2024-02-15T10:24:02;12.93;;;5.10;;
16954;SDS011;8594;52.052;8.354;2024-02-15T10:26:31;6.83;;;4.60;;
16954;SDS011;8594;52.052;8.354;2024-02-15T10:29:06;11.50;;;5.17;;
16954;SDS011;8594;52.052;8.354;2024-02-15T10:31:36;10.97;;;5.27;;
16954;SDS011;8594;52.052;8.354;2024-02-15T10:34:05;13.40;;;5.10;;
16954;SDS011;8594;52.052;8.354;2024-02-15T10:36:34;13.97;;;4.87;;
16954;SDS011;8594;52.052;8.354;2024-02-15T10:39:10;14.43;;;7.23;;
16954;SDS011;8594;52.052;8.354;2024-02-15T10:41:41;11.77;;;5.53;;
16954;SDS011;8594;52.052;8.354;2024-02-15T10:44:11;14.90;;;5.57;;
16954;SDS011;8594;52.052;8.354;2024-02-15T10:46:42;11.40;;;5.13;;
16954;SDS011;8594;52.052;8.354;2024-02-15T10:49:12;18.00;;;6.93;;
16954;SDS011;8594;52.052;8.354;2024-02-15T10:51:43;17.10;;;6.30;;
16954;SDS011;8594;52.052;8.354;2024-02-15T10:54:11;26.73;;;10.80;;
16954;SDS011;8594;52.052;8.354;2024-02-15T10:56:42;23.97;;;11.77;;
16954;SDS011;8594;52.052;8.354;2024-02-15T10:59:16;26.00;;;11.43;;
16954;SDS011;8594;52.052;8.354;2024-02-15T11:01:45;13.87;;;4.67;;
16954;SDS011;8594;52.052;8.354;2024-02-15T11:04:14;13.63;;;6.77;;
16954;SDS011;8594;52.052;8.354;2024-02-15T11:06:43;9.30;;;4.70;;
16954;SDS011;8594;52.052;8.354;2024-02-15T11:09:11;13.80;;;5.07;;
16954;SDS011;8594;52.052;8.354;2024-02-15T11:11:39;9.97;;;4.80;;
16954;SDS011;8594;52.052;8.354;2024-02-15T11:14:22;9.97;;;5.30;;
16954;SDS011;8594;52.052;8.354;2024-02-15T11:16:52;10.80;;;6.00;;
16954;SDS011;8594;52.052;8.354;2024-02-15T11:22:08;11.57;;;6.30;;
16954;SDS011;8594;52.052;8.354;2024-02-15T11:24:37;16.50;;;4.67;;
16954;SDS011;8594;52.052;8.354;2024-02-15T11:27:12;7.33;;;4.70;;
16954;SDS011;8594;52.052;8.354;2024-02-15T11:29:49;14.10;;;5.20;;
16954;SDS011;8594;52.052;8.354;2024-02-15T11:32:34;11.70;;;4.77;;
16954;SDS011;8594;52.052;8.354;2024-02-15T11:35:08;14.13;;;5.10;;
16954;SDS011;8594;52.052;8.354;2024-02-15T11:37:51;12.23;;;6.27;;
16954;SDS011;8594;52.052;8.354;2024-02-15T11:40:20;11.30;;;5.07;;
16954;SDS011;8594;52.052;8.354;2024-02-15T11:42:49;10.73;;;4.53;;
16954;SDS011;8594;52.052;8.354;2024-02-15T11:45:18;9.80;;;4.53;;
16954;SDS011;8594;52.052;8.354;2024-02-15T11:47:49;12.67;;;5.67;;
16954;SDS011;8594;52.052;8.354;2024-02-15T11:50:17;13.90;;;5.07;;
16954;SDS011;8594;52.052;8.354;2024-02-15T11:52:46;8.43;;;4.43;;
16954;SDS011;8594;52.052;8.354;2024-02-15T11:55:17;14.37;;;4.83;;
16954;SDS011;8594;52.052;8.354;2024-02-15T11:57:55;10.30;;;4.57;;
16954;SDS011;8594;52.052;8.354;2024-02-15T12:00:29;13.00;;;4.53;;
16954;SDS011;8594;52.052;8.354;2024-02-15T12:03:15;7.40;;;4.30;;
16954;SDS011;8594;52.052;8.354;2024-02-15T12:06:01;11.67;;;3.67;;
16954;SDS011;8594;52.052;8.354;2024-02-15T12:08:46;8.40;;;3.97;;
16954;SDS011;8594;52.052;8.354;2024-02-15T12:11:46;6.50;;;3.03;;
16954;SDS011;8594;52.052;8.354;2024-02-15T12:14:31;7.73;;;2.90;;
16954;SDS011;8594;52.052;8.354;2024-02-15T12:17:15;5.93;;;2.70;;
16954;SDS011;8594;52.052;8.354;2024-02-15T12:20:00;7.83;;;3.00;;
16954;SDS011;8594;52.052;8.354;2024-02-15T12:22:32;7.50;;;3.10;;
16954;SDS011;8594;52.052;8.354;2024-02-15T12:25:06;8.97;;;3.03;;
16954;SDS011;8594;52.052;8.354;2024-02-15T12:27:38;6.30;;;2.77;;
16954;SDS011;8594;52.052;8.354;2024-02-15T12:30:06;7.63;;;3.20;;
16954;SDS011;8594;52.052;8.354;2024-02-15T12:32:39;9.93;;;3.20;;
16954;SDS011;8594;52.052;8.354;2024-02-15T12:35:09;7.03;;;2.57;;
16954;SDS011;8594;52.052;8.354;2024-02-15T12:37:40;11.73;;;4.00;;
16954;SDS011;8594;52.052;8.354;2024-02-15T12:40:10;6.03;;;3.17;;
16954;SDS011;8594;52.052;8.354;2024-02-15T12:42:42;5.60;;;2.47;;
16954;SDS011;8594;52.052;8.354;2024-02-15T12:45:15;8.17;;;3.60;;
16954;SDS011;8594;52.052;8.354;2024-02-15T12:47:45;9.83;;;3.33;;
16954;SDS011;8594;52.052;8.354;2024-02-15T12:50:14;9.60;;;2.80;;
16954;SDS011;8594;52.052;8.354;2024-02-15T12:52:42;7.00;;;3.00;;
16954;SDS011;8594;52.052;8.354;2024-02-15T12:55:14;10.07;;;3.00;;
16954;SDS011;8594;52.052;8.354;2024-02-15T12:57:43;9.20;;;2.90;;
16954;SDS011;8594;52.052;8.354;2024-02-15T13:00:16;7.40;;;2.40;;
16954;SDS011;8594;52.052;8.354;2024-02-15T13:02:46;4.67;;;2.27;;
16954;SDS011;8594;52.052;8.354;2024-02-15T13:05:14;7.07;;;2.50;;
16954;SDS011;8594;52.052;8.354;2024-02-15T13:07:43;4.77;;;2.40;;
16954;SDS011;8594;52.052;8.354;2024-02-15T13:10:10;7.10;;;2.40;;
16954;SDS011;8594;52.052;8.354;2024-02-15T13:12:40;3.17;;;2.10;;
16954;SDS011;8594;52.052;8.354;2024-02-15T13:15:10;7.10;;;3.03;;
16954;SDS011;8594;52.052;8.354;2024-02-15T13:17:40;6.10;;;2.57;;
16954;SDS011;8594;52.052;8.354;2024-02-15T13:20:10;6.70;;;2.50;;
16954;SDS011;8594;52.052;8.354;2024-02-15T13:22:38;7.40;;;2.80;;
16954;SDS011;8594;52.052;8.354;2024-02-15T13:25:06;6.23;;;3.10;;
16954;SDS011;8594;52.052;8.354;2024-02-15T13:27:34;8.00;;;2.70;;
16954;SDS011;8594;52.052;8.354;2024-02-15T13:30:03;9.87;;;2.63;;
16954;SDS011;8594;52.052;8.354;2024-02-15T13:32:35;7.23;;;2.70;;
16954;SDS011;8594;52.052;8.354;2024-02-15T13:35:03;9.97;;;3.00;;
16954;SDS011;8594;52.052;8.354;2024-02-15T13:37:39;6.43;;;2.93;;
16954;SDS011;8594;52.052;8.354;2024-02-15T13:40:08;8.73;;;3.40;;
16954;SDS011;8594;52.052;8.354;2024-02-15T13:42:40;10.77;;;3.70;;
16954;SDS011;8594;52.052;8.354;2024-02-15T13:45:12;9.67;;;4.37;;
16954;SDS011;8594;52.052;8.354;2024-02-15T13:47:41;10.33;;;4.03;;
16954;SDS011;8594;52.052;8.354;2024-02-15T13:50:12;10.63;;;4.93;;
16954;SDS011;8594;52.052;8.354;2024-02-15T13:52:40;9.93;;;4.77;;
16954;SDS011;8594;52.052;8.354;2024-02-15T13:55:08;11.07;;;5.40;;
16954;SDS011;8594;52.052;8.354;2024-02-15T13:57:37;16.83;;;6.13;;
16954;SDS011;8594;52.052;8.354;2024-02-15T14:00:04;13.60;;;6.40;;
16954;SDS011;8594;52.052;8.354;2024-02-15T14:02:38;13.33;;;6.70;;
16954;SDS011;8594;52.052;8.354;2024-02-15T14:05:08;16.20;;;6.50;;
16954;SDS011;8594;52.052;8.354;2024-02-15T14:07:36;9.47;;;5.30;;
16954;SDS011;8594;52.052;8.354;2024-02-15T14:10:04;10.17;;;5.20;;
16954;SDS011;8594;52.052;8.354;2024-02-15T14:12:32;9.90;;;5.40;;
16954;SDS011;8594;52.052;8.354;2024-02-15T14:14:59;12.10;;;5.30;;
16954;SDS011;8594;52.052;8.354;2024-02-15T14:17:26;10.97;;;6.00;;
16954;SDS011;8594;52.052;8.354;2024-02-15T14:19:55;13.60;;;5.43;;
16954;SDS011;8594;52.052;8.354;2024-02-15T14:22:22;13.87;;;6.37;;
16954;SDS011;8594;52.052;8.354;2024-02-15T14:24:53;17.77;;;7.03;;
16954;SDS011;8594;52.052;8.354;2024-02-15T14:27:20;9.57;;;5.10;;
16954;SDS011;8594;52.052;8.354;2024-02-15T14:29:47;12.27;;;4.83;;
16954;SDS011;8594;52.052;8.354;2024-02-15T14:32:27;8.97;;;4.80;;
16954;SDS011;8594;52.052;8.354;2024-02-15T14:35:13;11.53;;;5.07;;
16954;SDS011;8594;52.052;8.354;2024-02-15T14:37:41;11.83;;;4.63;;
16954;SDS011;8594;52.052;8.354;2024-02-15T14:40:09;10.47;;;4.83;;
16954;SDS011;8594;52.052;8.354;2024-02-15T14:42:40;11.77;;;5.17;;
16954;SDS011;8594;52.052;8.354;2024-02-15T14:45:07;12.30;;;5.07;;
16954;SDS011;8594;52.052;8.354;2024-02-15T14:47:35;8.37;;;4.90;;
16954;SDS011;8594;52.052;8.354;2024-02-15T14:50:02;10.97;;;5.60;;
16954;SDS011;8594;52.052;8.354;2024-02-15T14:52:34;9.57;;;4.70;;
16954;SDS011;8594;52.052;8.354;2024-02-15T14:55:02;12.60;;;5.03;;
16954;SDS011;8594;52.052;8.354;2024-02-15T14:57:30;10.90;;;5.20;;
16954;SDS011;8594;52.052;8.354;2024-02-15T14:59:58;9.23;;;4.60;;